Map

Track Data

SID SEASON NUMBER BASIN SUBBASIN NAME ISO_TIME NATURE LAT LON WMO_WIND WMO_PRES WMO_AGENCY TRACK_TYPE DIST2LAND LANDFALL IFLAG USA_AGENCY USA_ATCF_ID USA_LAT USA_LON USA_RECORD USA_STATUS USA_WIND USA_PRES USA_SSHS USA_R34_NE USA_R34_SE USA_R34_SW USA_R34_NW USA_R50_NE USA_R50_SE USA_R50_SW USA_R50_NW USA_R64_NE USA_R64_SE USA_R64_SW USA_R64_NW USA_POCI USA_ROCI USA_RMW USA_EYE TOKYO_LAT TOKYO_LON TOKYO_GRADE TOKYO_WIND TOKYO_PRES TOKYO_R50_DIR TOKYO_R50_LONG TOKYO_R50_SHORT TOKYO_R30_DIR TOKYO_R30_LONG TOKYO_R30_SHORT TOKYO_LAND CMA_LAT CMA_LON CMA_CAT CMA_WIND CMA_PRES HKO_LAT HKO_LON HKO_CAT HKO_WIND HKO_PRES NEWDELHI_LAT NEWDELHI_LON NEWDELHI_GRADE NEWDELHI_WIND NEWDELHI_PRES NEWDELHI_CI NEWDELHI_DP NEWDELHI_POCI REUNION_LAT REUNION_LON REUNION_TYPE REUNION_WIND REUNION_PRES REUNION_TNUM REUNION_CI REUNION_RMW REUNION_R34_NE REUNION_R34_SE REUNION_R34_SW REUNION_R34_NW REUNION_R50_NE REUNION_R50_SE REUNION_R50_SW REUNION_R50_NW REUNION_R64_NE REUNION_R64_SE REUNION_R64_SW REUNION_R64_NW BOM_LAT BOM_LON BOM_TYPE BOM_WIND BOM_PRES BOM_TNUM BOM_CI BOM_RMW BOM_R34_NE BOM_R34_SE BOM_R34_SW BOM_R34_NW BOM_R50_NE BOM_R50_SE BOM_R50_SW BOM_R50_NW BOM_R64_NE BOM_R64_SE BOM_R64_SW BOM_R64_NW BOM_ROCI BOM_POCI BOM_EYE BOM_POS_METHOD BOM_PRES_METHOD NADI_LAT NADI_LON NADI_CAT NADI_WIND NADI_PRES WELLINGTON_LAT WELLINGTON_LON WELLINGTON_WIND WELLINGTON_PRES DS824_LAT DS824_LON DS824_STAGE DS824_WIND DS824_PRES TD9636_LAT TD9636_LON TD9636_STAGE TD9636_WIND TD9636_PRES TD9635_LAT TD9635_LON TD9635_WIND TD9635_PRES TD9635_ROCI NEUMANN_LAT NEUMANN_LON NEUMANN_CLASS NEUMANN_WIND NEUMANN_PRES MLC_LAT MLC_LON MLC_CLASS MLC_WIND MLC_PRES USA_GUST BOM_GUST BOM_GUST_PER REUNION_GUST REUNION_GUST_PER USA_SEAHGT USA_SEARAD_NE USA_SEARAD_SE USA_SEARAD_SW USA_SEARAD_NW STORM_SPEED STORM_DIR
1945305S07062 1946 73 SI MM NOT_NAMED 1945-11-01 06:00:00 NR -7.00000 62.4000 reunion main 1525 1515 _____O________ -1 -7.00000 62.4000 99 9.90000 2 265
1945305S07062 1946 73 SI MM NOT_NAMED 1945-11-01 09:00:00 NR -7.00923 62.3031 main 1515 1505 _____P________ -1 -7.00923 62.3031 99 2 264
1945305S07062 1946 73 SI MM NOT_NAMED 1945-11-01 12:00:00 NR -7.01996 62.2000 main 1505 1495 _____P________ -1 -7.01996 62.2000 99 2 264
1945305S07062 1946 73 SI MM NOT_NAMED 1945-11-01 15:00:00 NR -7.03371 62.0844 main 1495 1480 _____P________ -1 -7.03371 62.0844 99 3 263
1945305S07062 1946 73 SI MM NOT_NAMED 1945-11-01 18:00:00 NR -7.05197 61.9501 main 1480 1461 _____P________ -1 -7.05197 61.9501 99 3 262
1945305S07062 1946 73 SI MM NOT_NAMED 1945-11-01 21:00:00 NR -7.07625 61.7907 main 1461 1441 _____P________ -1 -7.07625 61.7907 99 4 261
1945305S07062 1946 73 SI MM NOT_NAMED 1945-11-02 00:00:00 NR -7.10804 61.6001 main 1441 1422 _____P________ -1 -7.10804 61.6001 99 4 260
1945305S07062 1946 73 SI MM NOT_NAMED 1945-11-02 03:00:00 NR -7.14881 61.3720 main 1422 1387 _____P________ -1 -7.14881 61.3720 99 5 259
1945305S07062 1946 73 SI MM NOT_NAMED 1945-11-02 06:00:00 NR -7.20000 61.1000 reunion main 1387 1353 _____O________ -1 -7.20000 61.1000 99 9.90000 6 259
1945305S07062 1946 73 SI MM NOT_NAMED 1945-11-02 09:00:00 NR -7.26274 60.7801 main 1353 1315 _____P________ -1 -7.26274 60.7801 99 7 259
1945305S07062 1946 73 SI MM NOT_NAMED 1945-11-02 12:00:00 NR -7.33692 60.4167 main 1315 1271 _____P________ -1 -7.33692 60.4167 99 8 258
1945305S07062 1946 73 SI MM NOT_NAMED 1945-11-02 15:00:00 NR -7.42211 60.0167 main 1271 1227 _____P________ -1 -7.42211 60.0167 99 8 258
1945305S07062 1946 73 SI MM NOT_NAMED 1945-11-02 18:00:00 NR -7.51792 59.5867 main 1227 1183 _____P________ -1 -7.51792 59.5867 99 9 257
1945305S07062 1946 73 SI MM NOT_NAMED 1945-11-02 21:00:00 NR -7.62396 59.1333 main 1174 1131 _____P________ -1 -7.62396 59.1333 99 9 256
1945305S07062 1946 73 SI MM NOT_NAMED 1945-11-03 00:00:00 NR -7.73987 58.6633 main 1131 1072 _____P________ -1 -7.73987 58.6633 99 10 256
1945305S07062 1946 73 SI MM NOT_NAMED 1945-11-03 03:00:00 NR -7.86531 58.1833 main 1072 1020 _____P________ -1 -7.86531 58.1833 99 10 255
1945305S07062 1946 73 SI MM NOT_NAMED 1945-11-03 06:00:00 NR -8.00000 57.7000 reunion main 1020 968 _____O________ -1 -8.00000 57.7000 99 9.90000 10 253
1945305S07062 1946 73 SI MM NOT_NAMED 1945-11-03 09:00:00 NR -8.15505 57.1966 main 962 910 _____P________ -1 -8.15505 57.1966 99 11 252
1945305S07062 1946 73 SI MM NOT_NAMED 1945-11-03 12:00:00 NR -8.32256 56.6787 main 910 851 _____P________ -1 -8.32256 56.6787 99 11 252
1945305S07062 1946 73 SI MM NOT_NAMED 1945-11-03 15:00:00 NR -8.49732 56.1576 main 851 792 _____P________ -1 -8.49732 56.1576 99 11 251
1945305S07062 1946 73 SI MM NOT_NAMED 1945-11-03 18:00:00 NR -8.67412 55.6445 main 783 740 _____P________ -1 -8.67412 55.6445 99 11 251
1945305S07062 1946 73 SI MM NOT_NAMED 1945-11-03 21:00:00 NR -8.84785 55.1508 main 740 681 _____P________ -1 -8.84785 55.1508 99 10 250
1945305S07062 1946 73 SI MM NOT_NAMED 1945-11-04 00:00:00 NR -9.01341 54.6878 main 681 632 _____P________ -1 -9.01341 54.6878 99 9 250
1945305S07062 1946 73 SI MM NOT_NAMED 1945-11-04 03:00:00 NR -9.16578 54.2671 main 632 589 _____P________ -1 -9.16578 54.2671 99 8 250
1945305S07062 1946 73 SI MM NOT_NAMED 1945-11-04 06:00:00 NR -9.30000 53.9000 reunion main 589 555 _____O________ -1 -9.30000 53.9000 99 9.90000 7 250
1945305S07062 1946 73 SI MM NOT_NAMED 1945-11-04 09:00:00 NR -9.39485 53.6265 main 555 531 _____P________ -1 -9.39485 53.6265 99 5 250
1945305S07062 1946 73 SI MM NOT_NAMED 1945-11-04 12:00:00 NR -9.47268 53.4067 main 531 513 _____P________ -1 -9.47268 53.4067 99 4 250
1945305S07062 1946 73 SI MM NOT_NAMED 1945-11-04 15:00:00 NR -9.53742 53.2295 main 513 498 _____P________ -1 -9.53742 53.2295 99 3 249
1945305S07062 1946 73 SI MM NOT_NAMED 1945-11-04 18:00:00 NR -9.59296 53.0840 main 498 489 _____P________ -1 -9.59296 53.0840 99 3 248
1945305S07062 1946 73 SI MM NOT_NAMED 1945-11-04 21:00:00 NR -9.64317 52.9593 main 489 473 _____P________ -1 -9.64317 52.9593 99 3 247
1945305S07062 1946 73 SI MM NOT_NAMED 1945-11-05 00:00:00 NR -9.69186 52.8443 main 465 456 _____P________ -1 -9.69186 52.8443 99 2 246
1945305S07062 1946 73 SI MM NOT_NAMED 1945-11-05 03:00:00 NR -9.74288 52.7282 main 456 440 _____P________ -1 -9.74288 52.7282 99 3 246
1945305S07062 1946 73 SI MM NOT_NAMED 1945-11-05 06:00:00 NR -9.80000 52.6000 reunion main 440 425 _____O________ -1 -9.80000 52.6000 99 9.90000 3 246
1945305S07062 1946 73 SI MM NOT_NAMED 1945-11-05 09:00:00 NR -9.86618 52.4509 main 425 408 _____P________ -1 -9.86618 52.4509 99 3 246
1945305S07062 1946 73 SI MM NOT_NAMED 1945-11-05 12:00:00 NR -9.94099 52.2815 main 408 384 _____P________ -1 -9.94099 52.2815 99 4 246
1945305S07062 1946 73 SI MM NOT_NAMED 1945-11-05 15:00:00 NR -10.0232 52.0947 main 384 360 _____P________ -1 -10.0232 52.0947 99 4 246
1945305S07062 1946 73 SI MM NOT_NAMED 1945-11-05 18:00:00 NR -10.1114 51.8934 main 360 336 _____P________ -1 -10.1114 51.8934 99 4 246
1945305S07062 1946 73 SI MM NOT_NAMED 1945-11-05 21:00:00 NR -10.2045 51.6803 main 336 312 _____P________ -1 -10.2045 51.6803 99 5 246
1945305S07062 1946 73 SI MM NOT_NAMED 1945-11-06 00:00:00 NR -10.3011 51.4585 main 312 281 _____P________ -1 -10.3011 51.4585 99 5 246
1945305S07062 1946 73 SI MM NOT_NAMED 1945-11-06 03:00:00 NR -10.4000 51.2308 main 281 257 _____P________ -1 -10.4000 51.2308 99 5 246
1945305S07062 1946 73 SI MM NOT_NAMED 1945-11-06 06:00:00 NR -10.5000 51.0000 reunion main 257 _____O________ -1 -10.5000 51.0000 99 9.90000 5 246

About IBTrACS Database

This database is a web-friendly format of International Best Track Archive for Climate Stewardship (IBTrACS), a global best track data archive curated by NOAA dating back to 1842.

Updated: 2021-10-21